sensor_id;sensor_type;location;lat;lon;timestamp;temperature;humidity
10885;DHT22;5495;53.252;10.390;2023-01-04T00:00:07;4.20;99.90
10885;DHT22;5495;53.252;10.390;2023-01-04T00:02:42;4.10;99.90
10885;DHT22;5495;53.252;10.390;2023-01-04T00:05:37;5.70;99.90
10885;DHT22;5495;53.252;10.390;2023-01-04T00:08:07;6.40;99.90
10885;DHT22;5495;53.252;10.390;2023-01-04T00:11:10;4.20;99.90
10885;DHT22;5495;53.252;10.390;2023-01-04T00:13:58;4.70;99.90
10885;DHT22;5495;53.252;10.390;2023-01-04T00:16:38;4.50;99.90
10885;DHT22;5495;53.252;10.390;2023-01-04T00:19:23;6.10;99.90
10885;DHT22;5495;53.252;10.390;2023-01-04T00:21:52;3.70;99.90
10885;DHT22;5495;53.252;10.390;2023-01-04T00:24:25;4.80;99.90
10885;DHT22;5495;53.252;10.390;2023-01-04T00:27:02;4.10;99.90
10885;DHT22;5495;53.252;10.390;2023-01-04T00:29:38;6.30;99.90
10885;DHT22;5495;53.252;10.390;2023-01-04T00:32:08;6.40;99.90
10885;DHT22;5495;53.252;10.390;2023-01-04T00:34:38;6.30;99.90
10885;DHT22;5495;53.252;10.390;2023-01-04T00:37:11;6.40;99.90
10885;DHT22;5495;53.252;10.390;2023-01-04T00:39:42;6.40;99.90
10885;DHT22;5495;53.252;10.390;2023-01-04T00:42:39;5.10;99.90
10885;DHT22;5495;53.252;10.390;2023-01-04T00:45:10;6.40;99.90
10885;DHT22;5495;53.252;10.390;2023-01-04T00:47:39;4.90;99.90
10885;DHT22;5495;53.252;10.390;2023-01-04T00:50:11;6.50;99.90
10885;DHT22;5495;53.252;10.390;2023-01-04T00:52:41;6.50;99.90
10885;DHT22;5495;53.252;10.390;2023-01-04T00:55:11;4.40;99.90
10885;DHT22;5495;53.252;10.390;2023-01-04T00:57:49;5.30;99.90
10885;DHT22;5495;53.252;10.390;2023-01-04T01:00:17;8.90;99.90
10885;DHT22;5495;53.252;10.390;2023-01-04T01:02:52;6.50;99.90
10885;DHT22;5495;53.252;10.390;2023-01-04T01:05:36;3.30;99.90
10885;DHT22;5495;53.252;10.390;2023-01-04T01:08:17;5.50;99.90
10885;DHT22;5495;53.252;10.390;2023-01-04T01:11:10;3.90;99.90
10885;DHT22;5495;53.252;10.390;2023-01-04T01:13:43;4.70;99.90
10885;DHT22;5495;53.252;10.390;2023-01-04T01:16:21;5.40;99.90
10885;DHT22;5495;53.252;10.390;2023-01-04T01:19:05;6.50;99.90
10885;DHT22;5495;53.252;10.390;2023-01-04T01:21:42;6.50;99.90
10885;DHT22;5495;53.252;10.390;2023-01-04T01:27:17;5.10;99.90
10885;DHT22;5495;53.252;10.390;2023-01-04T01:32:53;5.10;99.90
10885;DHT22;5495;53.252;10.390;2023-01-04T01:35:25;6.60;99.90
10885;DHT22;5495;53.252;10.390;2023-01-04T01:38:08;5.20;99.90
10885;DHT22;5495;53.252;10.390;2023-01-04T01:40:43;6.60;99.90
10885;DHT22;5495;53.252;10.390;2023-01-04T01:55:23;4.00;99.90
10885;DHT22;5495;53.252;10.390;2023-01-04T02:05:29;5.80;99.90
10885;DHT22;5495;53.252;10.390;2023-01-04T02:12:09;2.60;99.90
10885;DHT22;5495;53.252;10.390;2023-01-04T02:14:57;4.40;99.90
10885;DHT22;5495;53.252;10.390;2023-01-04T02:18:03;6.70;99.90
10885;DHT22;5495;53.252;10.390;2023-01-04T02:20:49;6.70;99.90
10885;DHT22;5495;53.252;10.390;2023-01-04T02:27:49;6.80;99.90
10885;DHT22;5495;53.252;10.390;2023-01-04T02:31:17;4.00;99.90
10885;DHT22;5495;53.252;10.390;2023-01-04T02:34:06;6.70;99.90
10885;DHT22;5495;53.252;10.390;2023-01-04T02:37:18;6.10;99.90
10885;DHT22;5495;53.252;10.390;2023-01-04T02:43:43;6.20;99.90
10885;DHT22;5495;53.252;10.390;2023-01-04T02:49:55;6.80;99.90
10885;DHT22;5495;53.252;10.390;2023-01-04T02:52:50;6.80;99.90
10885;DHT22;5495;53.252;10.390;2023-01-04T02:55:37;5.80;99.90
10885;DHT22;5495;53.252;10.390;2023-01-04T02:58:28;6.70;99.90
10885;DHT22;5495;53.252;10.390;2023-01-04T03:01:29;5.30;99.90
10885;DHT22;5495;53.252;10.390;2023-01-04T03:08:16;4.80;99.90
10885;DHT22;5495;53.252;10.390;2023-01-04T03:11:01;4.90;99.90
10885;DHT22;5495;53.252;10.390;2023-01-04T03:13:45;6.80;99.90
10885;DHT22;5495;53.252;10.390;2023-01-04T03:16:40;6.80;99.90
10885;DHT22;5495;53.252;10.390;2023-01-04T03:20:07;6.70;99.90
10885;DHT22;5495;53.252;10.390;2023-01-04T03:23:20;8.20;99.90
10885;DHT22;5495;53.252;10.390;2023-01-04T03:26:16;6.80;99.90
10885;DHT22;5495;53.252;10.390;2023-01-04T03:32:27;5.10;99.90
10885;DHT22;5495;53.252;10.390;2023-01-04T03:48:12;5.40;99.90
10885;DHT22;5495;53.252;10.390;2023-01-04T03:51:41;3.70;99.90
10885;DHT22;5495;53.252;10.390;2023-01-04T03:54:45;6.80;99.90
10885;DHT22;5495;53.252;10.390;2023-01-04T03:57:29;4.60;99.90
10885;DHT22;5495;53.252;10.390;2023-01-04T04:00:17;7.50;99.90
10885;DHT22;5495;53.252;10.390;2023-01-04T04:03:18;4.40;99.90
10885;DHT22;5495;53.252;10.390;2023-01-04T04:06:15;3.70;99.90
10885;DHT22;5495;53.252;10.390;2023-01-04T04:09:08;3.70;99.90
10885;DHT22;5495;53.252;10.390;2023-01-04T04:12:01;6.10;99.90
10885;DHT22;5495;53.252;10.390;2023-01-04T04:14:48;5.40;99.90
10885;DHT22;5495;53.252;10.390;2023-01-04T04:17:24;3.90;99.90
10885;DHT22;5495;53.252;10.390;2023-01-04T04:20:11;7.50;99.90
10885;DHT22;5495;53.252;10.390;2023-01-04T04:22:49;3.90;99.90
10885;DHT22;5495;53.252;10.390;2023-01-04T04:25:37;5.20;99.90
10885;DHT22;5495;53.252;10.390;2023-01-04T04:28:20;3.80;99.90
10885;DHT22;5495;53.252;10.390;2023-01-04T04:30:58;3.40;99.90
10885;DHT22;5495;53.252;10.390;2023-01-04T04:33:49;3.70;99.90
10885;DHT22;5495;53.252;10.390;2023-01-04T04:36:48;5.30;99.90
10885;DHT22;5495;53.252;10.390;2023-01-04T04:39:44;6.50;99.90
10885;DHT22;5495;53.252;10.390;2023-01-04T04:42:11;3.40;99.90
10885;DHT22;5495;53.252;10.390;2023-01-04T04:44:39;4.20;99.90
10885;DHT22;5495;53.252;10.390;2023-01-04T04:47:08;3.50;99.90
10885;DHT22;5495;53.252;10.390;2023-01-04T04:50:09;3.50;99.90
10885;DHT22;5495;53.252;10.390;2023-01-04T04:53:02;3.00;99.90
10885;DHT22;5495;53.252;10.390;2023-01-04T04:55:45;4.70;99.90
10885;DHT22;5495;53.252;10.390;2023-01-04T04:58:46;3.80;99.90
10885;DHT22;5495;53.252;10.390;2023-01-04T05:01:27;3.90;99.90
10885;DHT22;5495;53.252;10.390;2023-01-04T05:04:00;4.40;99.90
10885;DHT22;5495;53.252;10.390;2023-01-04T05:06:57;6.70;99.90
10885;DHT22;5495;53.252;10.390;2023-01-04T05:13:31;6.70;99.90
10885;DHT22;5495;53.252;10.390;2023-01-04T05:16:00;6.80;99.90
10885;DHT22;5495;53.252;10.390;2023-01-04T05:18:27;6.80;99.90
10885;DHT22;5495;53.252;10.390;2023-01-04T05:20:54;7.10;99.90
10885;DHT22;5495;53.252;10.390;2023-01-04T05:23:24;6.80;99.90
10885;DHT22;5495;53.252;10.390;2023-01-04T05:25:57;4.80;99.90
10885;DHT22;5495;53.252;10.390;2023-01-04T05:28:30;6.80;99.90
10885;DHT22;5495;53.252;10.390;2023-01-04T05:31:06;6.80;99.90
10885;DHT22;5495;53.252;10.390;2023-01-04T05:34:03;6.90;99.90
10885;DHT22;5495;53.252;10.390;2023-01-04T05:36:36;7.20;99.90
10885;DHT22;5495;53.252;10.390;2023-01-04T05:39:17;3.80;99.90
10885;DHT22;5495;53.252;10.390;2023-01-04T05:41:44;7.00;99.90
10885;DHT22;5495;53.252;10.390;2023-01-04T05:44:44;6.70;99.90
10885;DHT22;5495;53.252;10.390;2023-01-04T05:47:15;6.80;99.90
10885;DHT22;5495;53.252;10.390;2023-01-04T05:49:42;6.80;99.90
10885;DHT22;5495;53.252;10.390;2023-01-04T05:52:09;6.70;99.90
10885;DHT22;5495;53.252;10.390;2023-01-04T05:54:37;6.70;99.90
10885;DHT22;5495;53.252;10.390;2023-01-04T05:57:04;6.40;99.90
10885;DHT22;5495;53.252;10.390;2023-01-04T05:59:33;6.80;99.90
10885;DHT22;5495;53.252;10.390;2023-01-04T06:02:00;6.80;99.90
10885;DHT22;5495;53.252;10.390;2023-01-04T06:04:27;6.80;99.90
10885;DHT22;5495;53.252;10.390;2023-01-04T06:06:54;6.90;99.90
10885;DHT22;5495;53.252;10.390;2023-01-04T06:09:21;6.90;99.90
10885;DHT22;5495;53.252;10.390;2023-01-04T06:11:49;6.90;99.90
10885;DHT22;5495;53.252;10.390;2023-01-04T06:14:16;6.90;99.90
10885;DHT22;5495;53.252;10.390;2023-01-04T06:16:43;6.90;99.90
10885;DHT22;5495;53.252;10.390;2023-01-04T06:19:10;7.00;99.90
10885;DHT22;5495;53.252;10.390;2023-01-04T06:21:37;7.00;99.90
10885;DHT22;5495;53.252;10.390;2023-01-04T06:24:04;7.10;99.90
10885;DHT22;5495;53.252;10.390;2023-01-04T06:26:31;7.10;99.90
10885;DHT22;5495;53.252;10.390;2023-01-04T06:28:58;7.20;99.90
10885;DHT22;5495;53.252;10.390;2023-01-04T06:31:24;7.10;99.90
10885;DHT22;5495;53.252;10.390;2023-01-04T06:33:51;7.10;99.90
10885;DHT22;5495;53.252;10.390;2023-01-04T06:36:18;7.10;99.90
10885;DHT22;5495;53.252;10.390;2023-01-04T06:38:47;7.10;99.90
10885;DHT22;5495;53.252;10.390;2023-01-04T06:41:14;7.10;99.90
10885;DHT22;5495;53.252;10.390;2023-01-04T06:43:40;7.10;99.90
10885;DHT22;5495;53.252;10.390;2023-01-04T06:46:07;7.10;99.90
10885;DHT22;5495;53.252;10.390;2023-01-04T06:48:34;7.10;99.90
10885;DHT22;5495;53.252;10.390;2023-01-04T06:51:01;7.20;99.90
10885;DHT22;5495;53.252;10.390;2023-01-04T06:53:28;7.20;99.90
10885;DHT22;5495;53.252;10.390;2023-01-04T06:55:55;7.30;99.90
10885;DHT22;5495;53.252;10.390;2023-01-04T06:58:22;7.30;99.90
10885;DHT22;5495;53.252;10.390;2023-01-04T07:00:52;7.30;99.90
10885;DHT22;5495;53.252;10.390;2023-01-04T07:03:19;7.30;99.90
10885;DHT22;5495;53.252;10.390;2023-01-04T07:05:46;7.30;99.90
10885;DHT22;5495;53.252;10.390;2023-01-04T07:08:13;7.30;99.90
10885;DHT22;5495;53.252;10.390;2023-01-04T07:10:41;7.40;99.90
10885;DHT22;5495;53.252;10.390;2023-01-04T07:13:08;7.40;99.90
10885;DHT22;5495;53.252;10.390;2023-01-04T07:15:35;7.10;99.90
10885;DHT22;5495;53.252;10.390;2023-01-04T07:18:02;7.40;99.90
10885;DHT22;5495;53.252;10.390;2023-01-04T07:20:29;7.40;99.90
10885;DHT22;5495;53.252;10.390;2023-01-04T07:22:56;7.40;99.90
10885;DHT22;5495;53.252;10.390;2023-01-04T07:25:23;7.40;99.90
10885;DHT22;5495;53.252;10.390;2023-01-04T07:27:50;7.50;99.90
10885;DHT22;5495;53.252;10.390;2023-01-04T07:30:21;7.50;99.90
10885;DHT22;5495;53.252;10.390;2023-01-04T07:32:48;7.50;99.90
10885;DHT22;5495;53.252;10.390;2023-01-04T07:35:16;7.50;99.90
10885;DHT22;5495;53.252;10.390;2023-01-04T07:37:43;7.50;99.90
10885;DHT22;5495;53.252;10.390;2023-01-04T07:40:10;7.40;99.90
10885;DHT22;5495;53.252;10.390;2023-01-04T07:42:37;7.60;99.90
10885;DHT22;5495;53.252;10.390;2023-01-04T07:45:06;7.60;99.90
10885;DHT22;5495;53.252;10.390;2023-01-04T07:47:33;7.60;99.90
10885;DHT22;5495;53.252;10.390;2023-01-04T07:50:00;7.60;99.90
10885;DHT22;5495;53.252;10.390;2023-01-04T07:52:27;7.70;99.90
10885;DHT22;5495;53.252;10.390;2023-01-04T07:54:53;7.70;99.90
10885;DHT22;5495;53.252;10.390;2023-01-04T07:57:20;7.70;99.90
10885;DHT22;5495;53.252;10.390;2023-01-04T07:59:47;7.70;99.90
10885;DHT22;5495;53.252;10.390;2023-01-04T08:02:14;7.70;99.90
10885;DHT22;5495;53.252;10.390;2023-01-04T08:04:41;7.70;99.90
10885;DHT22;5495;53.252;10.390;2023-01-04T08:07:08;7.80;99.90
10885;DHT22;5495;53.252;10.390;2023-01-04T08:09:35;7.80;99.90
10885;DHT22;5495;53.252;10.390;2023-01-04T08:12:04;7.80;99.90
10885;DHT22;5495;53.252;10.390;2023-01-04T08:14:30;7.80;99.90
10885;DHT22;5495;53.252;10.390;2023-01-04T08:16:57;7.60;99.90
10885;DHT22;5495;53.252;10.390;2023-01-04T08:19:25;7.90;99.90
10885;DHT22;5495;53.252;10.390;2023-01-04T08:21:55;7.90;99.90
10885;DHT22;5495;53.252;10.390;2023-01-04T08:24:22;8.00;99.90
10885;DHT22;5495;53.252;10.390;2023-01-04T08:26:49;8.00;99.90
10885;DHT22;5495;53.252;10.390;2023-01-04T08:29:16;8.00;99.90
10885;DHT22;5495;53.252;10.390;2023-01-04T08:31:42;8.00;99.90
10885;DHT22;5495;53.252;10.390;2023-01-04T08:34:09;8.00;99.90
10885;DHT22;5495;53.252;10.390;2023-01-04T08:36:45;8.10;99.90
10885;DHT22;5495;53.252;10.390;2023-01-04T08:39:14;8.10;99.90
10885;DHT22;5495;53.252;10.390;2023-01-04T08:41:41;7.10;99.90
10885;DHT22;5495;53.252;10.390;2023-01-04T08:44:18;8.10;99.90
10885;DHT22;5495;53.252;10.390;2023-01-04T08:46:45;8.10;99.90
10885;DHT22;5495;53.252;10.390;2023-01-04T08:49:12;8.20;99.90
10885;DHT22;5495;53.252;10.390;2023-01-04T08:51:42;8.20;99.90
10885;DHT22;5495;53.252;10.390;2023-01-04T08:54:12;8.20;99.90
10885;DHT22;5495;53.252;10.390;2023-01-04T08:56:40;8.30;99.90
10885;DHT22;5495;53.252;10.390;2023-01-04T08:59:08;8.30;99.90
10885;DHT22;5495;53.252;10.390;2023-01-04T09:01:38;8.10;99.90
10885;DHT22;5495;53.252;10.390;2023-01-04T09:04:08;8.40;99.90
10885;DHT22;5495;53.252;10.390;2023-01-04T09:06:36;6.10;99.90
10885;DHT22;5495;53.252;10.390;2023-01-04T09:09:06;8.40;99.90
10885;DHT22;5495;53.252;10.390;2023-01-04T09:11:33;5.10;99.90
10885;DHT22;5495;53.252;10.390;2023-01-04T09:14:00;8.40;99.90
10885;DHT22;5495;53.252;10.390;2023-01-04T09:16:27;6.10;99.90
10885;DHT22;5495;53.252;10.390;2023-01-04T09:18:56;7.50;99.90
10885;DHT22;5495;53.252;10.390;2023-01-04T09:21:28;8.50;99.90
10885;DHT22;5495;53.252;10.390;2023-01-04T09:23:56;9.30;99.90
10885;DHT22;5495;53.252;10.390;2023-01-04T09:26:27;8.60;99.90
10885;DHT22;5495;53.252;10.390;2023-01-04T09:28:55;8.60;99.90
10885;DHT22;5495;53.252;10.390;2023-01-04T09:31:23;8.60;99.90
10885;DHT22;5495;53.252;10.390;2023-01-04T09:33:50;8.70;99.90
10885;DHT22;5495;53.252;10.390;2023-01-04T09:36:18;8.80;99.90
10885;DHT22;5495;53.252;10.390;2023-01-04T09:38:44;8.80;99.90
10885;DHT22;5495;53.252;10.390;2023-01-04T09:41:17;8.80;99.90
10885;DHT22;5495;53.252;10.390;2023-01-04T09:43:48;8.90;99.90
10885;DHT22;5495;53.252;10.390;2023-01-04T09:46:24;8.90;99.90
10885;DHT22;5495;53.252;10.390;2023-01-04T09:48:59;8.90;99.90
10885;DHT22;5495;53.252;10.390;2023-01-04T09:51:34;8.90;99.90
10885;DHT22;5495;53.252;10.390;2023-01-04T09:54:06;8.90;99.90
10885;DHT22;5495;53.252;10.390;2023-01-04T09:56:37;9.10;99.90
10885;DHT22;5495;53.252;10.390;2023-01-04T09:59:07;9.00;99.90
10885;DHT22;5495;53.252;10.390;2023-01-04T10:01:42;9.00;99.90
10885;DHT22;5495;53.252;10.390;2023-01-04T10:04:16;9.00;99.90
10885;DHT22;5495;53.252;10.390;2023-01-04T10:06:47;9.00;99.90
10885;DHT22;5495;53.252;10.390;2023-01-04T10:09:15;9.10;99.90
10885;DHT22;5495;53.252;10.390;2023-01-04T10:11:57;9.10;99.90
10885;DHT22;5495;53.252;10.390;2023-01-04T10:14:51;9.10;99.90
10885;DHT22;5495;53.252;10.390;2023-01-04T10:17:42;9.10;99.90
10885;DHT22;5495;53.252;10.390;2023-01-04T10:26:11;9.20;99.90
10885;DHT22;5495;53.252;10.390;2023-01-04T10:28:47;9.10;99.90
10885;DHT22;5495;53.252;10.390;2023-01-04T10:31:26;9.20;99.90
10885;DHT22;5495;53.252;10.390;2023-01-04T10:33:58;9.20;99.90
10885;DHT22;5495;53.252;10.390;2023-01-04T10:36:31;9.20;99.90
10885;DHT22;5495;53.252;10.390;2023-01-04T10:39:01;9.30;99.90
10885;DHT22;5495;53.252;10.390;2023-01-04T10:41:34;9.30;99.90
10885;DHT22;5495;53.252;10.390;2023-01-04T10:44:09;9.20;99.90
10885;DHT22;5495;53.252;10.390;2023-01-04T10:46:44;9.30;99.90
10885;DHT22;5495;53.252;10.390;2023-01-04T10:49:17;9.30;99.90
10885;DHT22;5495;53.252;10.390;2023-01-04T10:51:50;9.30;99.90
10885;DHT22;5495;53.252;10.390;2023-01-04T10:54:25;9.30;99.90
10885;DHT22;5495;53.252;10.390;2023-01-04T10:56:59;9.30;99.90
10885;DHT22;5495;53.252;10.390;2023-01-04T10:59:32;9.40;99.90
10885;DHT22;5495;53.252;10.390;2023-01-04T11:02:09;9.40;99.90
10885;DHT22;5495;53.252;10.390;2023-01-04T11:04:42;9.40;99.90
10885;DHT22;5495;53.252;10.390;2023-01-04T11:07:14;9.40;99.90
10885;DHT22;5495;53.252;10.390;2023-01-04T11:09:47;9.40;99.90
10885;DHT22;5495;53.252;10.390;2023-01-04T11:12:19;9.50;99.90
10885;DHT22;5495;53.252;10.390;2023-01-04T11:14:47;9.50;99.90
10885;DHT22;5495;53.252;10.390;2023-01-04T11:17:14;9.50;99.90
10885;DHT22;5495;53.252;10.390;2023-01-04T11:19:42;9.70;99.90
10885;DHT22;5495;53.252;10.390;2023-01-04T11:22:13;9.60;99.90
10885;DHT22;5495;53.252;10.390;2023-01-04T11:24:42;9.60;99.90
10885;DHT22;5495;53.252;10.390;2023-01-04T11:27:13;9.80;99.90
10885;DHT22;5495;53.252;10.390;2023-01-04T11:29:45;9.60;99.90
10885;DHT22;5495;53.252;10.390;2023-01-04T11:32:18;9.60;99.90
10885;DHT22;5495;53.252;10.390;2023-01-04T11:34:49;9.60;99.90
10885;DHT22;5495;53.252;10.390;2023-01-04T11:37:27;9.70;99.90
10885;DHT22;5495;53.252;10.390;2023-01-04T11:40:20;9.70;99.90
10885;DHT22;5495;53.252;10.390;2023-01-04T11:42:48;9.70;99.90
10885;DHT22;5495;53.252;10.390;2023-01-04T11:45:23;9.70;99.90
10885;DHT22;5495;53.252;10.390;2023-01-04T11:47:53;9.70;99.90
10885;DHT22;5495;53.252;10.390;2023-01-04T11:50:40;9.70;99.90
10885;DHT22;5495;53.252;10.390;2023-01-04T11:53:24;9.70;99.90
10885;DHT22;5495;53.252;10.390;2023-01-04T11:56:08;9.70;99.90
10885;DHT22;5495;53.252;10.390;2023-01-04T11:58:35;9.70;99.90
10885;DHT22;5495;53.252;10.390;2023-01-04T12:01:01;9.70;99.90
10885;DHT22;5495;53.252;10.390;2023-01-04T12:03:30;9.80;99.90
10885;DHT22;5495;53.252;10.390;2023-01-04T12:05:59;9.70;99.90
10885;DHT22;5495;53.252;10.390;2023-01-04T12:08:29;9.70;99.90
10885;DHT22;5495;53.252;10.390;2023-01-04T12:10:58;9.70;99.90
10885;DHT22;5495;53.252;10.390;2023-01-04T12:13:28;10.00;99.90
10885;DHT22;5495;53.252;10.390;2023-01-04T12:16:02;9.80;99.90
10885;DHT22;5495;53.252;10.390;2023-01-04T12:18:36;9.70;99.90
10885;DHT22;5495;53.252;10.390;2023-01-04T12:21:04;9.70;99.90
10885;DHT22;5495;53.252;10.390;2023-01-04T12:23:32;9.80;99.90
10885;DHT22;5495;53.252;10.390;2023-01-04T12:25:59;9.80;99.90
10885;DHT22;5495;53.252;10.390;2023-01-04T12:28:29;9.80;99.90
10885;DHT22;5495;53.252;10.390;2023-01-04T12:31:26;9.90;99.90
10885;DHT22;5495;53.252;10.390;2023-01-04T12:33:54;9.90;99.90
10885;DHT22;5495;53.252;10.390;2023-01-04T12:36:55;9.90;99.90
10885;DHT22;5495;53.252;10.390;2023-01-04T12:39:34;10.00;99.90
10885;DHT22;5495;53.252;10.390;2023-01-04T12:42:18;9.90;99.90
10885;DHT22;5495;53.252;10.390;2023-01-04T12:45:14;9.90;99.90
10885;DHT22;5495;53.252;10.390;2023-01-04T12:47:44;10.00;99.90
10885;DHT22;5495;53.252;10.390;2023-01-04T12:53:51;10.00;99.90
10885;DHT22;5495;53.252;10.390;2023-01-04T12:56:22;9.90;99.90
10885;DHT22;5495;53.252;10.390;2023-01-04T12:59:08;10.30;99.90
10885;DHT22;5495;53.252;10.390;2023-01-04T13:01:36;9.90;99.90
10885;DHT22;5495;53.252;10.390;2023-01-04T13:04:28;9.20;99.90
10885;DHT22;5495;53.252;10.390;2023-01-04T13:07:07;10.00;99.90
10885;DHT22;5495;53.252;10.390;2023-01-04T13:09:41;9.90;99.90
10885;DHT22;5495;53.252;10.390;2023-01-04T13:12:18;10.00;99.90
10885;DHT22;5495;53.252;10.390;2023-01-04T13:14:48;10.00;99.90
10885;DHT22;5495;53.252;10.390;2023-01-04T13:17:21;10.00;99.90
10885;DHT22;5495;53.252;10.390;2023-01-04T13:19:54;10.00;99.90
10885;DHT22;5495;53.252;10.390;2023-01-04T13:22:27;10.10;99.90
10885;DHT22;5495;53.252;10.390;2023-01-04T13:24:57;9.90;99.90
10885;DHT22;5495;53.252;10.390;2023-01-04T13:27:41;10.30;99.90
10885;DHT22;5495;53.252;10.390;2023-01-04T13:30:32;10.10;99.90
10885;DHT22;5495;53.252;10.390;2023-01-04T13:33:07;10.10;99.90
10885;DHT22;5495;53.252;10.390;2023-01-04T13:35:35;10.10;99.90
10885;DHT22;5495;53.252;10.390;2023-01-04T13:38:11;10.10;99.90
10885;DHT22;5495;53.252;10.390;2023-01-04T13:40:43;10.50;99.90
10885;DHT22;5495;53.252;10.390;2023-01-04T13:43:39;10.20;99.90
10885;DHT22;5495;53.252;10.390;2023-01-04T13:46:14;10.20;99.90
10885;DHT22;5495;53.252;10.390;2023-01-04T13:48:44;12.50;99.90
10885;DHT22;5495;53.252;10.390;2023-01-04T13:51:14;10.60;99.90
10885;DHT22;5495;53.252;10.390;2023-01-04T13:53:51;10.30;99.90
10885;DHT22;5495;53.252;10.390;2023-01-04T13:56:20;10.20;99.90
10885;DHT22;5495;53.252;10.390;2023-01-04T13:58:47;10.20;99.90
10885;DHT22;5495;53.252;10.390;2023-01-04T14:01:26;10.10;99.90
10885;DHT22;5495;53.252;10.390;2023-01-04T14:04:00;10.30;99.90
10885;DHT22;5495;53.252;10.390;2023-01-04T14:06:29;10.10;99.90
10885;DHT22;5495;53.252;10.390;2023-01-04T14:09:04;10.10;99.90
10885;DHT22;5495;53.252;10.390;2023-01-04T14:11:39;10.10;99.90
10885;DHT22;5495;53.252;10.390;2023-01-04T14:14:36;10.20;99.90
10885;DHT22;5495;53.252;10.390;2023-01-04T14:17:25;10.10;99.90
10885;DHT22;5495;53.252;10.390;2023-01-04T14:19:56;10.10;99.90
10885;DHT22;5495;53.252;10.390;2023-01-04T14:22:38;10.20;99.90
10885;DHT22;5495;53.252;10.390;2023-01-04T14:25:37;10.30;99.90
10885;DHT22;5495;53.252;10.390;2023-01-04T14:28:33;10.20;99.90
10885;DHT22;5495;53.252;10.390;2023-01-04T14:31:32;10.20;99.90
10885;DHT22;5495;53.252;10.390;2023-01-04T14:34:09;10.20;99.90
10885;DHT22;5495;53.252;10.390;2023-01-04T14:36:38;10.10;99.90
10885;DHT22;5495;53.252;10.390;2023-01-04T14:39:24;10.30;99.90
10885;DHT22;5495;53.252;10.390;2023-01-04T14:41:55;10.10;99.90
10885;DHT22;5495;53.252;10.390;2023-01-04T14:44:26;10.20;99.90
10885;DHT22;5495;53.252;10.390;2023-01-04T14:46:57;10.20;99.90
10885;DHT22;5495;53.252;10.390;2023-01-04T14:49:24;10.20;99.90
10885;DHT22;5495;53.252;10.390;2023-01-04T14:51:55;10.60;99.90
10885;DHT22;5495;53.252;10.390;2023-01-04T14:54:23;10.30;99.90
10885;DHT22;5495;53.252;10.390;2023-01-04T14:56:51;10.30;99.90
10885;DHT22;5495;53.252;10.390;2023-01-04T14:59:20;10.40;99.90
10885;DHT22;5495;53.252;10.390;2023-01-04T15:01:49;10.30;99.90
10885;DHT22;5495;53.252;10.390;2023-01-04T15:04:17;10.30;99.90
10885;DHT22;5495;53.252;10.390;2023-01-04T15:06:49;10.30;99.90
10885;DHT22;5495;53.252;10.390;2023-01-04T15:09:16;10.20;99.90
10885;DHT22;5495;53.252;10.390;2023-01-04T15:11:43;10.30;99.90
10885;DHT22;5495;53.252;10.390;2023-01-04T15:14:09;10.40;99.90
10885;DHT22;5495;53.252;10.390;2023-01-04T15:16:40;10.30;99.90
10885;DHT22;5495;53.252;10.390;2023-01-04T15:19:07;10.60;99.90
10885;DHT22;5495;53.252;10.390;2023-01-04T15:21:34;10.40;99.90
10885;DHT22;5495;53.252;10.390;2023-01-04T15:24:01;10.40;99.90
10885;DHT22;5495;53.252;10.390;2023-01-04T15:26:28;10.40;99.90
10885;DHT22;5495;53.252;10.390;2023-01-04T15:28:55;10.40;99.90
10885;DHT22;5495;53.252;10.390;2023-01-04T15:31:23;10.40;99.90
10885;DHT22;5495;53.252;10.390;2023-01-04T15:33:52;10.40;99.90
10885;DHT22;5495;53.252;10.390;2023-01-04T15:36:20;10.40;99.90
10885;DHT22;5495;53.252;10.390;2023-01-04T15:38:47;10.40;99.90
10885;DHT22;5495;53.252;10.390;2023-01-04T15:41:16;10.40;99.90
10885;DHT22;5495;53.252;10.390;2023-01-04T15:43:57;10.40;99.90
10885;DHT22;5495;53.252;10.390;2023-01-04T15:46:24;10.40;99.90
10885;DHT22;5495;53.252;10.390;2023-01-04T15:48:52;10.40;99.90
10885;DHT22;5495;53.252;10.390;2023-01-04T15:51:21;10.40;99.90
10885;DHT22;5495;53.252;10.390;2023-01-04T15:53:50;10.30;99.90
10885;DHT22;5495;53.252;10.390;2023-01-04T15:56:19;10.40;99.90
10885;DHT22;5495;53.252;10.390;2023-01-04T15:58:49;10.40;99.90
10885;DHT22;5495;53.252;10.390;2023-01-04T16:01:17;10.40;99.90
10885;DHT22;5495;53.252;10.390;2023-01-04T16:03:43;10.40;99.90
10885;DHT22;5495;53.252;10.390;2023-01-04T16:06:13;10.40;99.90
10885;DHT22;5495;53.252;10.390;2023-01-04T16:08:40;10.50;99.90
10885;DHT22;5495;53.252;10.390;2023-01-04T16:11:09;10.50;99.90
10885;DHT22;5495;53.252;10.390;2023-01-04T16:13:36;10.50;99.90
10885;DHT22;5495;53.252;10.390;2023-01-04T16:16:03;10.50;99.90
10885;DHT22;5495;53.252;10.390;2023-01-04T16:18:30;10.40;99.90
10885;DHT22;5495;53.252;10.390;2023-01-04T16:20:57;10.40;99.90
10885;DHT22;5495;53.252;10.390;2023-01-04T16:23:25;10.40;99.90
10885;DHT22;5495;53.252;10.390;2023-01-04T16:26:03;10.10;99.90
10885;DHT22;5495;53.252;10.390;2023-01-04T16:28:31;10.30;99.90
10885;DHT22;5495;53.252;10.390;2023-01-04T16:30:57;10.90;99.90
10885;DHT22;5495;53.252;10.390;2023-01-04T16:33:24;10.40;99.90
10885;DHT22;5495;53.252;10.390;2023-01-04T16:35:58;10.40;99.90
10885;DHT22;5495;53.252;10.390;2023-01-04T16:38:27;10.40;99.90
10885;DHT22;5495;53.252;10.390;2023-01-04T16:40:58;10.50;99.90
10885;DHT22;5495;53.252;10.390;2023-01-04T16:43:25;10.40;99.90
10885;DHT22;5495;53.252;10.390;2023-01-04T16:46:14;10.10;99.90
10885;DHT22;5495;53.252;10.390;2023-01-04T16:48:43;10.40;99.90
10885;DHT22;5495;53.252;10.390;2023-01-04T16:51:15;10.50;99.90
10885;DHT22;5495;53.252;10.390;2023-01-04T16:53:43;10.40;99.90
10885;DHT22;5495;53.252;10.390;2023-01-04T16:56:11;10.50;99.90
10885;DHT22;5495;53.252;10.390;2023-01-04T16:58:39;10.40;99.90
10885;DHT22;5495;53.252;10.390;2023-01-04T17:01:10;10.40;99.90
10885;DHT22;5495;53.252;10.390;2023-01-04T17:03:37;10.40;99.90
10885;DHT22;5495;53.252;10.390;2023-01-04T17:06:06;10.70;99.90
10885;DHT22;5495;53.252;10.390;2023-01-04T17:08:34;10.50;99.90
10885;DHT22;5495;53.252;10.390;2023-01-04T17:11:09;10.50;99.90
10885;DHT22;5495;53.252;10.390;2023-01-04T17:13:36;10.50;99.90
10885;DHT22;5495;53.252;10.390;2023-01-04T17:16:04;10.50;99.90
10885;DHT22;5495;53.252;10.390;2023-01-04T17:18:36;10.40;99.90
10885;DHT22;5495;53.252;10.390;2023-01-04T17:21:08;10.50;99.90
10885;DHT22;5495;53.252;10.390;2023-01-04T17:23:49;10.10;99.90
10885;DHT22;5495;53.252;10.390;2023-01-04T17:26:21;10.40;99.90
10885;DHT22;5495;53.252;10.390;2023-01-04T17:28:51;9.50;99.90
10885;DHT22;5495;53.252;10.390;2023-01-04T17:31:23;9.10;99.90
10885;DHT22;5495;53.252;10.390;2023-01-04T17:33:50;10.50;99.90
10885;DHT22;5495;53.252;10.390;2023-01-04T17:36:21;10.30;99.90
10885;DHT22;5495;53.252;10.390;2023-01-04T17:38:48;10.80;99.90
10885;DHT22;5495;53.252;10.390;2023-01-04T17:41:18;10.60;99.90
10885;DHT22;5495;53.252;10.390;2023-01-04T17:43:47;10.50;99.90